Terminal Aerodrome Forecast
Issued by NWS

Home | Current Version | Previous Version | Text Only | Print | Product List | Glossary On
Versions: 1 2 3 4 5 6 7 8 9 10 11 12 13 14 15 16 17
000
FTPA31 PHFO 252333
TAFHJR
TAF
PHJR 252333Z 2600/2624 07010G18KT P6SM SCT040
     FM260400 06005KT P6SM FEW030 SCT050
     FM262000 07010G18KT P6SM SCT040=

USA.gov is the U.S. government's official web portal to all federal, state and local government web resources and services.